createdAt,value
2023-04-10T00:00:19.610Z,58.61
2023-04-10T00:01:19.590Z,58.61
2023-04-10T00:02:19.698Z,58.70
2023-04-10T00:03:19.648Z,58.51
2023-04-10T00:04:19.657Z,58.61
2023-04-10T00:05:19.518Z,58.80
2023-04-10T00:06:19.504Z,58.61
2023-04-10T00:07:19.483Z,58.89
2023-04-10T00:08:19.516Z,58.61
2023-04-10T00:09:19.446Z,59.56
2023-04-10T00:10:19.451Z,58.58
2023-04-10T00:11:19.415Z,59.08
2023-04-10T00:12:19.397Z,59.15
2023-04-10T00:13:19.381Z,59.15
2023-04-10T00:14:19.359Z,58.86
2023-04-10T00:15:19.351Z,58.96
2023-04-10T00:16:19.370Z,58.96
2023-04-10T00:17:19.393Z,59.15
2023-04-10T00:18:19.384Z,58.58
2023-04-10T00:19:19.272Z,59.05
2023-04-10T00:20:19.253Z,59.53
2023-04-10T00:21:19.247Z,59.44
2023-04-10T00:22:19.217Z,59.53
2023-04-10T00:23:19.223Z,59.53
2023-04-10T00:24:19.190Z,59.63
2023-04-10T00:25:19.191Z,59.44
2023-04-10T00:26:19.156Z,59.53
2023-04-10T00:27:19.145Z,59.34
2023-04-10T00:28:19.118Z,59.44
2023-04-10T00:29:19.096Z,59.81
2023-04-10T00:30:19.085Z,59.81
2023-04-10T00:31:19.066Z,60.00
2023-04-10T00:32:19.133Z,59.34
2023-04-10T00:33:19.028Z,59.63
2023-04-10T00:34:19.014Z,59.63
2023-04-10T00:35:19.005Z,59.63
2023-04-10T00:36:19.035Z,59.44
2023-04-10T00:37:18.986Z,59.44
2023-04-10T00:38:18.961Z,59.53
2023-04-10T00:39:18.922Z,59.53
2023-04-10T00:40:18.908Z,59.25
2023-04-10T00:41:18.901Z,59.81
2023-04-10T00:42:18.874Z,59.69
2023-04-10T00:43:18.852Z,59.97
2023-04-10T00:44:18.831Z,59.78
2023-04-10T00:45:18.814Z,59.78
2023-04-10T00:46:18.811Z,59.88
2023-04-10T00:47:18.815Z,59.59
2023-04-10T00:48:18.766Z,59.78
2023-04-10T00:49:18.745Z,60.25
2023-04-10T00:50:18.725Z,60.25
2023-04-10T00:51:19.186Z,60.06
2023-04-10T00:52:19.477Z,60.25
2023-04-10T00:53:18.674Z,60.35
2023-04-10T00:54:18.655Z,60.35
2023-04-10T00:55:18.640Z,60.25
2023-04-10T00:56:18.620Z,60.35
2023-04-10T00:57:18.607Z,60.35
2023-04-10T00:58:18.585Z,60.25
2023-04-10T00:59:18.568Z,60.25
2023-04-10T01:00:18.557Z,60.44
2023-04-10T01:01:18.572Z,60.25
2023-04-10T01:02:18.677Z,60.03
2023-04-10T01:03:18.639Z,60.03
2023-04-10T01:04:18.600Z,60.13
2023-04-10T01:05:18.480Z,60.70
2023-04-10T01:06:18.455Z,60.61
2023-04-10T01:07:18.429Z,60.89
2023-04-10T01:08:18.406Z,60.51
2023-04-10T01:09:18.399Z,60.70
2023-04-10T01:10:18.369Z,60.99
2023-04-10T01:11:18.365Z,61.08
2023-04-10T01:12:18.335Z,60.99
2023-04-10T01:13:18.314Z,60.99
2023-04-10T01:14:18.306Z,61.18
2023-04-10T01:15:18.285Z,61.08
2023-04-10T01:16:18.283Z,61.18
2023-04-10T01:17:18.249Z,60.99
2023-04-10T01:18:18.225Z,60.89
2023-04-10T01:19:18.219Z,60.89
2023-04-10T01:20:18.192Z,61.18
2023-04-10T01:21:18.184Z,61.08
2023-04-10T01:22:18.150Z,60.80
2023-04-10T01:23:18.138Z,60.80
2023-04-10T01:24:18.129Z,60.99
2023-04-10T01:25:18.101Z,60.99
2023-04-10T01:26:18.083Z,60.80
2023-04-10T01:27:18.075Z,60.96
2023-04-10T01:28:18.046Z,60.89
2023-04-10T01:29:18.055Z,60.99
2023-04-10T01:30:18.008Z,60.89
2023-04-10T01:31:18.022Z,60.96
2023-04-10T01:32:18.005Z,61.05
2023-04-10T01:33:17.953Z,61.24
2023-04-10T01:34:17.957Z,61.33
2023-04-10T01:35:17.929Z,61.33
2023-04-10T01:36:17.900Z,61.05
2023-04-10T01:37:17.886Z,61.52
2023-04-10T01:38:17.862Z,61.05
2023-04-10T01:39:17.848Z,61.33
2023-04-10T01:40:17.842Z,61.33
2023-04-10T01:41:17.813Z,61.43
2023-04-10T01:42:17.792Z,61.05
2023-04-10T01:43:17.775Z,61.33
2023-04-10T01:44:17.758Z,61.33
2023-04-10T01:45:17.744Z,61.43
2023-04-10T01:46:17.801Z,61.43
2023-04-10T01:47:17.705Z,61.33
2023-04-10T01:48:17.688Z,61.15
2023-04-10T01:49:17.664Z,61.71
2023-04-10T01:50:17.645Z,61.71
2023-04-10T01:51:17.638Z,61.61
2023-04-10T01:52:17.620Z,61.80
2023-04-10T01:53:17.595Z,61.80
2023-04-10T01:54:17.572Z,61.80
2023-04-10T01:55:17.556Z,61.43
2023-04-10T01:56:17.536Z,61.52
2023-04-10T01:57:17.518Z,61.90
2023-04-10T01:58:17.533Z,61.33
2023-04-10T01:59:17.488Z,61.99
2023-04-10T02:00:17.516Z,61.90
2023-04-10T02:01:28.454Z,61.90
2023-04-10T02:02:17.554Z,61.71
2023-04-10T02:03:17.732Z,61.80
2023-04-10T02:04:17.514Z,61.61
2023-04-10T02:05:17.375Z,61.80
2023-04-10T02:06:17.355Z,61.99
2023-04-10T02:07:17.338Z,61.80
2023-04-10T02:08:17.316Z,61.90
2023-04-10T02:09:17.299Z,61.80
2023-04-10T02:10:17.279Z,61.71
2023-04-10T02:11:17.268Z,61.90
2023-04-10T02:12:17.265Z,61.99
2023-04-10T02:13:17.224Z,62.09
2023-04-10T02:14:17.203Z,62.18
2023-04-10T02:15:17.190Z,62.37
2023-04-10T02:16:17.204Z,61.80
2023-04-10T02:17:17.159Z,62.18
2023-04-10T02:18:17.136Z,61.80
2023-04-10T02:19:17.112Z,61.99
2023-04-10T02:20:17.094Z,62.28
2023-04-10T02:21:17.076Z,61.99
2023-04-10T02:22:17.063Z,61.99
2023-04-10T02:23:17.046Z,61.99
2023-04-10T02:24:17.021Z,61.90
2023-04-10T02:25:17.000Z,62.28
2023-04-10T02:26:16.987Z,62.09
2023-04-10T02:27:16.963Z,62.28
2023-04-10T02:28:16.946Z,61.99
2023-04-10T02:29:16.924Z,61.80
2023-04-10T02:30:16.907Z,61.80
2023-04-10T02:31:16.949Z,61.80
2023-04-10T02:32:16.870Z,62.37
2023-04-10T02:33:16.856Z,62.18
2023-04-10T02:34:16.841Z,62.28
2023-04-10T02:35:16.811Z,62.28
2023-04-10T02:36:16.840Z,62.37
2023-04-10T02:37:16.773Z,62.37
2023-04-10T02:38:17.421Z,62.47
2023-04-10T02:39:16.739Z,62.47
2023-04-10T02:40:16.735Z,62.56
2023-04-10T02:41:16.699Z,62.56
2023-04-10T02:42:16.685Z,62.37
2023-04-10T02:43:16.663Z,62.37
2023-04-10T02:44:16.650Z,62.85
2023-04-10T02:45:16.631Z,62.85
2023-04-10T02:46:16.628Z,62.66
2023-04-10T02:47:16.671Z,62.09
2023-04-10T02:48:16.568Z,62.09
2023-04-10T02:49:16.575Z,62.66
2023-04-10T02:50:16.534Z,62.56
2023-04-10T02:51:16.515Z,62.56
2023-04-10T02:52:16.516Z,62.56
2023-04-10T02:53:16.487Z,62.18
2023-04-10T02:54:16.470Z,62.66
2023-04-10T02:55:16.446Z,62.56
2023-04-10T02:56:16.426Z,62.56
2023-04-10T02:57:16.416Z,62.66
2023-04-10T02:58:16.388Z,62.56
2023-04-10T02:59:16.365Z,62.47
2023-04-10T03:00:16.354Z,62.09
2023-04-10T03:01:16.338Z,62.09
2023-04-10T03:02:16.369Z,62.09
2023-04-10T03:03:16.453Z,62.47
2023-04-10T03:04:16.343Z,62.56
2023-04-10T03:05:16.267Z,62.75
2023-04-10T03:06:16.243Z,62.56
2023-04-10T03:07:16.214Z,62.75
2023-04-10T03:08:16.199Z,62.94
2023-04-10T03:09:16.176Z,62.75
2023-04-10T03:10:16.163Z,62.75
2023-04-10T03:11:16.143Z,62.75
2023-04-10T03:12:16.125Z,62.75
2023-04-10T03:13:16.105Z,62.85
2023-04-10T03:14:16.090Z,62.94
2023-04-10T03:15:16.094Z,63.13
2023-04-10T03:16:16.075Z,63.32
2023-04-10T03:17:16.027Z,63.04
2023-04-10T03:18:16.050Z,63.23
2023-04-10T03:19:15.988Z,63.13
2023-04-10T03:20:15.982Z,63.04
2023-04-10T03:21:15.957Z,63.13
2023-04-10T03:22:15.934Z,63.13
2023-04-10T03:23:15.969Z,62.94
2023-04-10T03:24:16.401Z,62.94
2023-04-10T03:25:15.880Z,62.85
2023-04-10T03:26:15.860Z,63.04
2023-04-10T03:27:15.849Z,62.85
2023-04-10T03:28:15.831Z,63.13
2023-04-10T03:29:15.811Z,62.85
2023-04-10T03:30:15.785Z,63.51
2023-04-10T03:31:15.832Z,63.51
2023-04-10T03:32:15.746Z,63.51
2023-04-10T03:33:15.744Z,63.04
2023-04-10T03:34:15.729Z,63.70
2023-04-10T03:35:15.693Z,63.23
2023-04-10T03:36:15.695Z,63.13
2023-04-10T03:37:15.668Z,63.42
2023-04-10T03:38:15.634Z,63.23
2023-04-10T03:39:15.620Z,63.60
2023-04-10T03:40:15.602Z,63.51
2023-04-10T03:41:15.581Z,63.51
2023-04-10T03:42:15.567Z,63.79
2023-04-10T03:43:15.540Z,63.51
2023-04-10T03:44:15.533Z,63.51
2023-04-10T03:45:15.512Z,63.42
2023-04-10T03:46:15.529Z,63.51
2023-04-10T03:47:15.530Z,63.70
2023-04-10T03:48:15.452Z,63.42
2023-04-10T03:49:15.436Z,63.51
2023-04-10T03:50:15.437Z,63.60
2023-04-10T03:51:15.392Z,63.60
2023-04-10T03:52:15.379Z,63.60
2023-04-10T03:53:15.359Z,63.60
2023-04-10T03:54:15.334Z,63.51
2023-04-10T03:55:15.317Z,63.51
2023-04-10T03:56:15.305Z,63.60
2023-04-10T03:57:15.280Z,63.42
2023-04-10T03:58:15.278Z,63.42
2023-04-10T03:59:15.254Z,63.42
2023-04-10T04:00:15.231Z,63.42
2023-04-10T04:01:15.212Z,63.60
2023-04-10T04:02:15.248Z,63.51
2023-04-10T04:03:15.356Z,63.42
2023-04-10T04:04:15.228Z,63.51
2023-04-10T04:05:15.135Z,63.32
2023-04-10T04:06:15.114Z,63.23
2023-04-10T04:07:15.093Z,63.32
2023-04-10T04:08:15.075Z,63.60
2023-04-10T04:09:15.061Z,63.89
2023-04-10T04:10:15.034Z,63.32
2023-04-10T04:11:15.017Z,63.32
2023-04-10T04:12:15.000Z,63.70
2023-04-10T04:13:14.980Z,63.98
2023-04-10T04:14:14.962Z,63.42
2023-04-10T04:15:14.947Z,63.60
2023-04-10T04:16:14.960Z,63.89
2023-04-10T04:17:14.910Z,63.60
2023-04-10T04:18:14.889Z,63.51
2023-04-10T04:19:14.895Z,63.89
2023-04-10T04:20:14.849Z,63.98
2023-04-10T04:21:14.833Z,63.79
2023-04-10T04:22:14.815Z,63.98
2023-04-10T04:23:14.796Z,63.60
2023-04-10T04:24:14.775Z,63.79
2023-04-10T04:25:14.764Z,63.98
2023-04-10T04:26:14.739Z,63.98
2023-04-10T04:27:14.717Z,64.17
2023-04-10T04:28:14.703Z,63.98
2023-04-10T04:29:14.685Z,64.17
2023-04-10T04:30:14.671Z,64.17
2023-04-10T04:31:14.657Z,64.17
2023-04-10T04:32:14.794Z,64.07
2023-04-10T04:33:14.619Z,63.89
2023-04-10T04:34:14.599Z,64.26
2023-04-10T04:35:14.621Z,63.89
2023-04-10T04:36:14.629Z,63.98
2023-04-10T04:37:14.545Z,64.17
2023-04-10T04:38:14.523Z,64.07
2023-04-10T04:39:14.523Z,64.26
2023-04-10T04:40:14.482Z,64.17
2023-04-10T04:41:14.464Z,64.64
2023-04-10T04:42:14.442Z,64.55
2023-04-10T04:43:14.428Z,64.26
2023-04-10T04:44:14.409Z,64.26
2023-04-10T04:45:14.397Z,64.64
2023-04-10T04:46:14.397Z,64.26
2023-04-10T04:47:14.355Z,64.45
2023-04-10T04:48:14.334Z,64.55
2023-04-10T04:49:14.310Z,64.64
2023-04-10T04:50:14.298Z,64.26
2023-04-10T04:51:14.282Z,64.45
2023-04-10T04:52:14.260Z,64.55
2023-04-10T04:53:14.242Z,64.17
2023-04-10T04:54:14.220Z,64.45
2023-04-10T04:55:14.206Z,64.55
2023-04-10T04:56:14.202Z,64.17
2023-04-10T04:57:14.177Z,64.17
2023-04-10T04:58:14.144Z,64.17
2023-04-10T04:59:14.128Z,64.17
2023-04-10T05:00:14.110Z,64.17
2023-04-10T05:01:14.134Z,64.17
2023-04-10T05:02:14.217Z,64.45
2023-04-10T05:03:14.215Z,63.79
2023-04-10T05:04:14.243Z,64.01
2023-04-10T05:05:14.014Z,64.20
2023-04-10T05:06:14.002Z,64.20
2023-04-10T05:07:13.977Z,64.30
2023-04-10T05:08:13.961Z,64.30
2023-04-10T05:09:13.943Z,64.14
2023-04-10T05:10:13.921Z,64.23
2023-04-10T05:11:13.906Z,64.23
2023-04-10T05:12:13.881Z,64.04
2023-04-10T05:13:13.861Z,64.27
2023-04-10T05:14:13.844Z,63.60
2023-04-10T05:15:13.853Z,63.60
2023-04-10T05:16:13.841Z,63.51
2023-04-10T05:17:13.796Z,63.73
2023-04-10T05:18:13.913Z,63.64
2023-04-10T05:19:13.752Z,63.45
2023-04-10T05:20:13.735Z,63.35
2023-04-10T05:21:13.721Z,63.07
2023-04-10T05:22:13.695Z,63.39
2023-04-10T05:23:13.676Z,63.29
2023-04-10T05:24:13.662Z,63.01
2023-04-10T05:25:14.643Z,62.53
2023-04-10T05:26:13.625Z,62.62
2023-04-10T05:27:13.609Z,62.34
2023-04-10T05:28:13.592Z,62.46
2023-04-10T05:29:13.574Z,62.37
2023-04-10T05:30:13.560Z,62.75
2023-04-10T05:31:13.577Z,62.56
2023-04-10T05:32:13.519Z,62.85
2023-04-10T05:33:13.505Z,62.85
2023-04-10T05:34:13.487Z,62.85
2023-04-10T05:35:13.464Z,62.94
2023-04-10T05:36:13.507Z,62.46
2023-04-10T05:37:13.439Z,62.75
2023-04-10T05:38:13.410Z,62.75
2023-04-10T05:39:13.402Z,62.40
2023-04-10T05:40:13.386Z,62.40
2023-04-10T05:41:13.361Z,62.31
2023-04-10T05:42:13.349Z,62.59
2023-04-10T05:43:13.326Z,62.02
2023-04-10T05:44:13.318Z,62.21
2023-04-10T05:45:13.290Z,62.21
2023-04-10T05:46:13.330Z,61.83
2023-04-10T05:47:13.256Z,61.83
2023-04-10T05:48:13.246Z,62.05
2023-04-10T05:49:13.245Z,62.05
2023-04-10T05:50:13.210Z,61.87
2023-04-10T05:51:13.191Z,61.96
2023-04-10T05:52:13.173Z,61.68
2023-04-10T05:53:13.165Z,61.68
2023-04-10T05:54:13.141Z,61.39
2023-04-10T05:55:13.132Z,61.29
2023-04-10T05:56:13.137Z,61.68
2023-04-10T05:57:13.085Z,61.10
2023-04-10T05:58:13.067Z,61.01
2023-04-10T05:59:13.053Z,61.13
2023-04-10T06:00:13.062Z,61.13
2023-04-10T06:01:13.021Z,61.23
2023-04-10T06:02:13.021Z,61.23
2023-04-10T06:03:13.046Z,61.32
2023-04-10T06:04:13.159Z,61.42
2023-04-10T06:05:12.990Z,61.13
2023-04-10T06:06:12.945Z,60.75
2023-04-10T06:07:12.922Z,60.85
2023-04-10T06:08:12.921Z,60.57
2023-04-10T06:09:12.899Z,60.75
2023-04-10T06:10:12.873Z,60.94
2023-04-10T06:11:12.856Z,61.13
2023-04-10T06:12:12.843Z,61.13
2023-04-10T06:13:12.817Z,61.13
2023-04-10T06:14:12.808Z,61.13
2023-04-10T06:15:12.798Z,61.23
2023-04-10T06:16:12.813Z,61.13
2023-04-10T06:17:12.760Z,61.13
2023-04-10T06:18:12.734Z,61.13
2023-04-10T06:19:12.732Z,60.94
2023-04-10T06:20:12.718Z,60.75
2023-04-10T06:21:12.693Z,60.75
2023-04-10T06:22:12.663Z,60.85
2023-04-10T06:23:12.684Z,60.94
2023-04-10T06:24:12.991Z,60.66
2023-04-10T06:25:12.619Z,60.66
2023-04-10T06:26:12.606Z,60.66
2023-04-10T06:27:12.588Z,60.66
2023-04-10T06:28:12.574Z,60.66
2023-04-10T06:29:12.556Z,60.18
2023-04-10T06:30:12.540Z,60.47
2023-04-10T06:31:12.581Z,60.41
2023-04-10T06:32:12.518Z,60.50
2023-04-10T06:33:12.509Z,60.41
2023-04-10T06:34:12.479Z,60.50
2023-04-10T06:35:12.457Z,60.50
2023-04-10T06:36:12.501Z,60.21
2023-04-10T06:37:12.427Z,59.83
2023-04-10T06:38:12.439Z,60.05
2023-04-10T06:39:12.409Z,59.96
2023-04-10T06:40:12.382Z,59.67
2023-04-10T06:41:12.386Z,59.67
2023-04-10T06:42:12.358Z,59.32
2023-04-10T06:43:13.023Z,59.23
2023-04-10T06:44:12.333Z,59.32
2023-04-10T06:45:12.319Z,58.94
2023-04-10T06:46:12.333Z,58.97
2023-04-10T06:47:12.335Z,58.87
2023-04-10T06:48:12.254Z,58.97
2023-04-10T06:49:12.240Z,58.87
2023-04-10T06:50:12.229Z,59.26
2023-04-10T06:51:12.209Z,58.72
2023-04-10T06:52:12.190Z,58.72
2023-04-10T06:53:12.177Z,58.72
2023-04-10T06:54:12.158Z,58.91
2023-04-10T06:55:12.174Z,58.72
2023-04-10T06:56:12.144Z,58.43
2023-04-10T06:57:12.116Z,58.52
2023-04-10T06:58:12.108Z,58.04
2023-04-10T06:59:12.093Z,58.04
2023-04-10T07:00:12.187Z,58.36
2023-04-10T07:01:12.109Z,58.36
2023-04-10T07:02:12.096Z,58.36
2023-04-10T07:03:12.046Z,58.26
2023-04-10T07:04:12.055Z,58.07
2023-04-10T07:05:11.998Z,57.70
2023-04-10T07:06:11.995Z,57.60
2023-04-10T07:07:11.968Z,57.70
2023-04-10T07:08:11.956Z,57.72
2023-04-10T07:09:11.945Z,57.92
2023-04-10T07:10:11.945Z,57.43
2023-04-10T07:11:11.917Z,57.43
2023-04-10T07:12:11.889Z,57.72
2023-04-10T07:13:11.987Z,57.53
2023-04-10T07:14:11.879Z,57.63
2023-04-10T07:15:11.846Z,56.89
2023-04-10T07:16:11.844Z,57.46
2023-04-10T07:17:11.815Z,56.99
2023-04-10T07:18:11.796Z,56.99
2023-04-10T07:19:11.790Z,57.09
2023-04-10T07:20:11.790Z,57.21
2023-04-10T07:21:11.765Z,57.21
2023-04-10T07:22:11.744Z,57.21
2023-04-10T07:23:11.738Z,56.92
2023-04-10T07:24:11.718Z,57.02
2023-04-10T07:25:11.756Z,56.67
2023-04-10T07:26:11.699Z,56.95
2023-04-10T07:27:11.727Z,57.04
2023-04-10T07:28:11.671Z,56.12
2023-04-10T07:29:11.649Z,56.60
2023-04-10T07:30:13.495Z,56.21
2023-04-10T07:31:11.634Z,56.53
2023-04-10T07:32:11.737Z,55.86
2023-04-10T07:33:11.824Z,55.76
2023-04-10T07:34:11.607Z,55.69
2023-04-10T07:35:11.569Z,55.69
2023-04-10T07:36:11.623Z,55.05
2023-04-10T07:37:11.553Z,55.18
2023-04-10T07:38:11.541Z,54.89
2023-04-10T07:39:11.518Z,54.41
2023-04-10T07:40:11.518Z,53.86
2023-04-10T07:41:11.496Z,53.67
2023-04-10T07:42:11.485Z,53.41
2023-04-10T07:43:11.616Z,53.20
2023-04-10T07:44:11.467Z,51.38
2023-04-10T07:45:11.442Z,48.49
2023-04-10T07:46:11.475Z,45.98
2023-04-10T07:47:11.432Z,43.68
2023-04-10T07:48:11.406Z,41.43
2023-04-10T07:49:11.394Z,40.62
2023-04-10T07:50:11.406Z,39.00
2023-04-10T07:51:11.376Z,39.04
2023-04-10T07:52:11.365Z,38.10
2023-04-10T07:53:11.355Z,37.93
2023-04-10T07:54:11.376Z,37.48
2023-04-10T07:55:11.334Z,36.65
2023-04-10T07:56:11.329Z,36.34
2023-04-10T07:57:11.318Z,36.62
2023-04-10T07:58:11.309Z,37.22
2023-04-10T07:59:11.304Z,36.57
2023-04-10T08:00:11.303Z,35.63
2023-04-10T08:01:11.279Z,34.88
2023-04-10T08:02:11.343Z,34.74
2023-04-10T08:03:11.454Z,33.77
2023-04-10T08:04:11.465Z,33.39
2023-04-10T08:05:11.373Z,33.49
2023-04-10T08:06:11.263Z,34.34
2023-04-10T08:07:11.234Z,34.92
2023-04-10T08:08:11.222Z,35.10
2023-04-10T08:09:11.216Z,35.00
2023-04-10T08:10:11.210Z,35.02
2023-04-10T08:11:11.204Z,34.62
2023-04-10T08:12:11.194Z,34.64
2023-04-10T08:13:11.187Z,34.26
2023-04-10T08:14:11.178Z,33.69
2023-04-10T08:15:11.177Z,33.43
2023-04-10T08:16:11.198Z,32.56
2023-04-10T08:17:11.228Z,31.83
2023-04-10T08:18:11.158Z,31.34
2023-04-10T08:19:11.144Z,31.52
2023-04-10T08:20:11.159Z,31.45
2023-04-10T08:21:11.137Z,30.98
2023-04-10T08:22:11.133Z,31.27
2023-04-10T08:24:11.125Z,31.09
2023-04-10T08:25:11.136Z,30.63
2023-04-10T08:26:11.110Z,30.09
2023-04-10T08:27:11.096Z,28.85
2023-04-10T08:28:11.094Z,28.36
2023-04-10T08:29:11.087Z,28.45
2023-04-10T08:30:11.101Z,28.64
2023-04-10T08:31:11.130Z,28.75
2023-04-10T08:32:11.085Z,28.27
2023-04-10T08:33:11.085Z,28.28
2023-04-10T08:34:11.066Z,27.77
2023-04-10T08:35:11.070Z,28.34
2023-04-10T08:36:11.105Z,28.44
2023-04-10T08:37:11.977Z,28.85
2023-04-10T08:38:14.091Z,28.73
2023-04-10T08:39:11.042Z,28.64
2023-04-10T08:40:11.044Z,28.36
2023-04-10T08:41:11.034Z,28.05
2023-04-10T08:42:11.055Z,27.55
2023-04-10T08:43:11.034Z,28.05
2023-04-10T08:44:11.025Z,27.50
2023-04-10T08:45:11.021Z,26.94
2023-04-10T08:46:11.081Z,26.06
2023-04-10T08:47:11.021Z,25.48
2023-04-10T08:48:11.045Z,25.10
2023-04-10T08:49:11.010Z,25.01
2023-04-10T08:50:11.007Z,25.01
2023-04-10T08:51:15.759Z,24.91
2023-04-10T08:52:11.006Z,24.99
2023-04-10T08:53:10.991Z,25.37
2023-04-10T08:54:10.987Z,25.26
2023-04-10T08:55:10.988Z,24.96
2023-04-10T08:56:10.981Z,24.88
2023-04-10T08:57:11.166Z,24.11
2023-04-10T08:58:10.982Z,23.55
2023-04-10T08:59:11.251Z,23.55
2023-04-10T09:01:10.973Z,23.46
2023-04-10T09:02:11.041Z,23.47
2023-04-10T09:03:11.131Z,23.30
2023-04-10T09:04:11.001Z,22.39
2023-04-10T09:05:10.954Z,23.16
2023-04-10T09:06:10.950Z,23.74
2023-04-10T09:07:10.962Z,23.42
2023-04-10T09:08:10.964Z,23.69
2023-04-10T09:09:10.946Z,23.57
2023-04-10T09:10:10.968Z,23.83
2023-04-10T09:11:10.960Z,24.12
2023-04-10T09:12:10.941Z,23.93
2023-04-10T09:13:10.939Z,23.37
2023-04-10T09:14:10.960Z,22.89
2023-04-10T09:15:10.945Z,22.21
2023-04-10T09:16:10.962Z,22.32
2023-04-10T09:17:10.928Z,22.13
2023-04-10T09:18:11.082Z,21.74
2023-04-10T09:19:10.921Z,21.44
2023-04-10T09:20:10.921Z,21.55
2023-04-10T09:21:10.920Z,21.19
2023-04-10T09:22:10.923Z,20.51
2023-04-10T09:23:10.911Z,20.90
2023-04-10T09:24:10.913Z,20.42
2023-04-10T09:25:10.905Z,20.64
2023-04-10T09:26:10.904Z,19.87
2023-04-10T09:27:10.913Z,19.37
2023-04-10T09:28:10.905Z,19.54
2023-04-10T09:29:10.900Z,19.62
2023-04-10T09:30:10.907Z,19.73
2023-04-10T09:31:10.913Z,19.65
2023-04-10T09:32:10.895Z,19.62
2023-04-10T09:33:10.892Z,20.37
2023-04-10T09:34:10.912Z,20.29
2023-04-10T09:35:10.919Z,20.50
2023-04-10T09:36:10.929Z,19.99
2023-04-10T09:37:10.905Z,20.07
2023-04-10T09:38:10.904Z,20.18
2023-04-10T09:39:10.886Z,19.71
2023-04-10T09:40:10.885Z,19.51
2023-04-10T09:41:10.884Z,19.23
2023-04-10T09:42:10.885Z,19.35
2023-04-10T09:43:10.890Z,18.77
2023-04-10T09:44:10.883Z,18.68
2023-04-10T09:45:10.882Z,17.90
2023-04-10T09:46:10.896Z,18.22
2023-04-10T09:47:10.886Z,17.93
2023-04-10T09:48:10.885Z,17.93
2023-04-10T09:49:10.882Z,17.65
2023-04-10T09:50:10.880Z,17.76
2023-04-10T09:51:10.889Z,17.75
2023-04-10T09:52:10.884Z,17.73
2023-04-10T09:53:10.891Z,17.91
2023-04-10T09:54:10.880Z,18.70
2023-04-10T09:55:10.878Z,18.70
2023-04-10T09:56:10.879Z,18.68
2023-04-10T09:57:10.884Z,18.84
2023-04-10T09:58:10.884Z,19.21
2023-04-10T09:59:10.879Z,19.49
2023-04-10T10:00:10.877Z,19.48
2023-04-10T10:01:10.878Z,19.95
2023-04-10T10:02:10.927Z,19.94
2023-04-10T10:03:11.190Z,19.35
2023-04-10T10:04:10.893Z,19.33
2023-04-10T10:05:10.975Z,19.51
2023-04-10T10:06:10.880Z,20.08
2023-04-10T10:07:10.936Z,20.62
2023-04-10T10:08:10.877Z,20.97
2023-04-10T10:09:10.889Z,22.01
2023-04-10T10:10:10.878Z,23.04
2023-04-10T10:11:10.879Z,23.79
2023-04-10T10:12:10.880Z,24.27
2023-04-10T10:13:10.911Z,24.47
2023-04-10T10:14:10.879Z,23.90
2023-04-10T10:15:10.872Z,23.15
2023-04-10T10:16:10.900Z,22.02
2023-04-10T10:17:10.881Z,21.66
2023-04-10T10:18:10.863Z,20.79
2023-04-10T10:19:10.869Z,20.63
2023-04-10T10:20:10.876Z,19.97
2023-04-10T10:21:10.892Z,19.12
2023-04-10T10:22:10.872Z,18.92
2023-04-10T10:23:10.860Z,18.71
2023-04-10T10:24:10.857Z,18.82
2023-04-10T10:25:10.859Z,18.43
2023-04-10T10:26:10.869Z,18.56
2023-04-10T10:27:10.850Z,17.97
2023-04-10T10:28:10.848Z,18.56
2023-04-10T10:29:10.880Z,18.75
2023-04-10T10:30:25.302Z,18.84
2023-04-10T10:31:10.923Z,19.20
2023-04-10T10:32:10.845Z,19.21
2023-04-10T10:33:10.841Z,19.12
2023-04-10T10:34:10.839Z,19.12
2023-04-10T10:35:10.835Z,18.84
2023-04-10T10:36:10.835Z,18.45
2023-04-10T10:37:10.830Z,18.64
2023-04-10T10:38:10.829Z,18.43
2023-04-10T10:39:10.830Z,18.63
2023-04-10T10:40:10.840Z,18.06
2023-04-10T10:41:10.834Z,17.87
2023-04-10T10:42:10.838Z,18.06
2023-04-10T10:43:10.853Z,17.38
2023-04-10T10:44:10.822Z,17.13
2023-04-10T10:45:10.816Z,16.65
2023-04-10T10:46:10.861Z,15.80
2023-04-10T10:47:10.823Z,15.52
2023-04-10T10:48:10.813Z,15.55
2023-04-10T10:49:10.813Z,15.28
2023-04-10T10:50:10.815Z,14.40
2023-04-10T10:51:10.815Z,13.70
2023-04-10T10:52:10.815Z,13.81
2023-04-10T10:53:10.817Z,13.21
2023-04-10T10:54:10.812Z,13.10
2023-04-10T10:55:10.815Z,13.30
2023-04-10T10:56:10.814Z,13.08
2023-04-10T10:57:10.813Z,13.29
2023-04-10T10:58:10.823Z,13.21
2023-04-10T10:59:10.810Z,12.92
2023-04-10T11:00:10.814Z,12.71
2023-04-10T11:01:10.994Z,12.82
2023-04-10T11:02:10.886Z,12.32
2023-04-10T11:03:11.018Z,12.41
2023-04-10T11:04:10.876Z,12.69
2023-04-10T11:05:10.816Z,13.48
2023-04-10T11:06:10.824Z,13.29
2023-04-10T11:07:11.061Z,13.02
2023-04-10T11:08:10.852Z,12.82
2023-04-10T11:09:10.825Z,12.73
2023-04-10T11:10:10.829Z,12.52
2023-04-10T11:11:10.862Z,12.65
2023-04-10T11:12:10.835Z,12.54
2023-04-10T11:13:10.834Z,12.42
2023-04-10T11:14:10.835Z,12.71
2023-04-10T11:15:10.849Z,12.61
2023-04-10T11:16:10.915Z,12.51
2023-04-10T11:17:10.846Z,12.13
2023-04-10T11:18:10.863Z,11.76
2023-04-10T11:19:15.428Z,11.06
2023-04-10T11:20:10.859Z,11.48
2023-04-10T11:21:10.929Z,10.87
2023-04-10T11:22:10.854Z,10.68
2023-04-10T11:23:10.862Z,10.75
2023-04-10T11:24:10.859Z,11.35
2023-04-10T11:25:10.857Z,11.44
2023-04-10T11:26:10.865Z,11.42
2023-04-10T11:27:10.864Z,11.51
2023-04-10T11:28:10.877Z,11.81
2023-04-10T11:29:10.869Z,11.41
2023-04-10T11:30:10.869Z,11.52
2023-04-10T11:31:10.871Z,11.32
2023-04-10T11:32:10.899Z,11.00
2023-04-10T11:33:10.904Z,11.32
2023-04-10T11:34:10.881Z,11.02
2023-04-10T11:35:10.886Z,11.20
2023-04-10T11:36:10.884Z,11.66
2023-04-10T11:37:10.885Z,12.15
2023-04-10T11:38:10.888Z,12.44
2023-04-10T11:39:10.893Z,12.54
2023-04-10T11:40:10.894Z,12.33
2023-04-10T11:41:10.893Z,12.73
2023-04-10T11:42:10.897Z,12.82
2023-04-10T11:43:10.910Z,12.42
2023-04-10T11:44:10.906Z,12.31
2023-04-10T11:45:10.904Z,12.41
2023-04-10T11:46:10.938Z,12.81
2023-04-10T11:47:10.912Z,12.91
2023-04-10T11:48:10.932Z,12.70
2023-04-10T11:49:10.908Z,13.19
2023-04-10T11:50:10.928Z,13.16
2023-04-10T11:51:10.925Z,13.34
2023-04-10T11:52:10.915Z,13.71
2023-04-10T11:53:10.913Z,13.70
2023-04-10T11:54:10.921Z,13.79
2023-04-10T11:55:10.914Z,13.89
2023-04-10T11:56:10.937Z,13.79
2023-04-10T11:57:10.920Z,13.49
2023-04-10T11:58:10.926Z,13.89
2023-04-10T11:59:11.228Z,14.09
2023-04-10T12:00:10.918Z,13.98
2023-04-10T12:01:10.915Z,14.15
2023-04-10T12:02:11.006Z,14.61
2023-04-10T12:03:11.089Z,15.28
2023-04-10T12:04:11.078Z,15.45
2023-04-10T12:05:10.937Z,16.21
2023-04-10T12:06:10.955Z,16.48
2023-04-10T12:07:10.912Z,17.06
2023-04-10T12:08:10.907Z,17.33
2023-04-10T12:09:10.910Z,17.50
2023-04-10T12:10:10.906Z,18.25
2023-04-10T12:11:10.921Z,18.81
2023-04-10T12:12:10.906Z,19.10
2023-04-10T12:13:10.916Z,18.98
2023-04-10T12:14:10.893Z,19.26
2023-04-10T12:15:10.893Z,19.17
2023-04-10T12:16:10.985Z,18.98
2023-04-10T12:17:10.887Z,18.79
2023-04-10T12:18:10.884Z,18.79
2023-04-10T12:19:10.898Z,18.19
2023-04-10T12:20:10.880Z,18.68
2023-04-10T12:21:10.872Z,18.96
2023-04-10T12:22:10.872Z,19.43
2023-04-10T12:23:10.863Z,19.90
2023-04-10T12:24:10.860Z,20.19
2023-04-10T12:25:10.856Z,20.48
2023-04-10T12:26:10.866Z,20.16
2023-04-10T12:27:10.843Z,20.45
2023-04-10T12:28:10.848Z,20.45
2023-04-10T12:29:10.837Z,20.62
2023-04-10T12:30:10.833Z,20.89
2023-04-10T12:31:10.880Z,21.56
2023-04-10T12:32:10.823Z,21.66
2023-04-10T12:33:10.815Z,21.65
2023-04-10T12:34:11.384Z,21.75
2023-04-10T12:35:10.804Z,21.75
2023-04-10T12:36:10.802Z,21.83
2023-04-10T12:37:10.794Z,21.73
2023-04-10T12:38:10.789Z,21.75
2023-04-10T12:39:10.789Z,21.95
2023-04-10T12:40:10.796Z,21.75
2023-04-10T12:41:10.768Z,21.56
2023-04-10T12:42:10.773Z,21.37
2023-04-10T12:43:10.762Z,21.47
2023-04-10T12:44:10.763Z,21.47
2023-04-10T12:45:10.737Z,21.75
2023-04-10T12:46:10.787Z,21.75
2023-04-10T12:47:10.729Z,21.75
2023-04-10T12:48:10.759Z,21.64
2023-04-10T12:49:10.714Z,22.02
2023-04-10T12:50:10.903Z,21.94
2023-04-10T12:51:10.703Z,21.94
2023-04-10T12:52:10.694Z,22.22
2023-04-10T12:53:11.644Z,22.41
2023-04-10T12:54:10.676Z,22.61